Time;durP1;ratioP1;P1;durP2;ratioP2;P2;SDS_P1;SDS_P2;PMS_P1;PMS_P2;Temp;Humidity;BMP_temperature;BMP_pressure;BME280_temperature;BME280_humidity;BME280_pressure;Samples;Min_cycle;Max_cycle;Signal;HPM_P1;HPM_P2
2023/05/05 00:01:46;;;;;;;5.28;3.47;;;;;;;;;;5019393;28;20237;-65
2023/05/05 00:04:16;;;;;;;3.97;3.40;;;;;;;;;;5019675;28;20578;-65
2023/05/05 00:06:43;;;;;;;5.88;3.72;;;;;;;;;;5019697;28;20218;-65
2023/05/05 00:09:11;;;;;;;4.75;3.60;;;;;;;;;;5019902;28;20541;-65
2023/05/05 00:11:38;;;;;;;4.75;3.78;;;;;;;;;;5019358;28;20238;-65
2023/05/05 00:14:06;;;;;;;4.75;3.20;;;;;;;;;;5018829;28;20206;-65
2023/05/05 00:16:34;;;;;;;4.13;3.67;;;;;;;;;;5019219;28;20300;-64
2023/05/05 00:19:01;;;;;;;5.90;3.60;;;;;;;;;;5019178;28;20202;-64
2023/05/05 00:21:30;;;;;;;5.28;3.22;;;;;;;;;;5019310;28;20460;-64
2023/05/05 00:23:58;;;;;;;4.32;3.60;;;;;;;;;;5019103;28;20214;-65
2023/05/05 00:26:25;;;;;;;4.93;3.47;;;;;;;;;;5019106;28;20591;-65
2023/05/05 00:28:53;;;;;;;4.22;3.50;;;;;;;;;;5018952;28;20213;-65
2023/05/05 00:31:20;;;;;;;4.22;3.20;;;;;;;;;;5019262;28;20207;-65
2023/05/05 00:33:48;;;;;;;4.97;3.78;;;;;;;;;;5018658;28;20214;-65
2023/05/05 00:36:15;;;;;;;3.88;3.25;;;;;;;;;;5018783;28;20256;-65
2023/05/05 00:38:44;;;;;;;4.20;3.30;;;;;;;;;;5018571;28;20484;-65
2023/05/05 00:41:12;;;;;;;3.90;3.05;;;;;;;;;;5018920;28;20213;-65
2023/05/05 00:43:39;;;;;;;4.15;3.40;;;;;;;;;;5018771;28;20261;-65
2023/05/05 00:46:11;;;;;;;4.20;2.72;;;;;;;;;;5018831;28;20665;-65
2023/05/05 00:48:38;;;;;;;3.60;3.00;;;;;;;;;;5018953;28;20222;-65
2023/05/05 00:51:08;;;;;;;3.53;2.95;;;;;;;;;;5018551;28;20537;-65
2023/05/05 00:53:37;;;;;;;3.63;3.17;;;;;;;;;;5018573;28;20214;-65
2023/05/05 00:56:07;;;;;;;3.85;3.08;;;;;;;;;;5018074;28;20206;-65
2023/05/05 00:58:35;;;;;;;4.55;3.20;;;;;;;;;;5018917;28;20213;-65
2023/05/05 01:01:03;;;;;;;3.35;2.88;;;;;;;;;;5019023;28;20233;-65
2023/05/05 01:03:30;;;;;;;4.20;2.90;;;;;;;;;;5018045;28;20229;-65
2023/05/05 01:06:05;;;;;;;3.67;2.78;;;;;;;;;;5018356;28;20206;-65
2023/05/05 01:08:37;;;;;;;3.83;3.25;;;;;;;;;;5018217;28;20213;-65
2023/05/05 01:11:11;;;;;;;3.05;2.63;;;;;;;;;;5017926;28;20206;-65
2023/05/05 01:13:44;;;;;;;3.80;3.20;;;;;;;;;;5018203;28;20246;-65
2023/05/05 01:16:15;;;;;;;3.10;2.80;;;;;;;;;;5018532;28;20309;-65
2023/05/05 01:18:46;;;;;;;3.45;3.05;;;;;;;;;;5017941;28;20206;-65
2023/05/05 01:21:15;;;;;;;3.92;3.17;;;;;;;;;;5018254;28;20310;-65
2023/05/05 01:24:02;;;;;;;3.53;3.03;;;;;;;;;;5017707;28;20226;-65
2023/05/05 01:26:47;;;;;;;4.13;3.03;;;;;;;;;;5017840;28;20210;-65
2023/05/05 01:29:32;;;;;;;4.53;3.08;;;;;;;;;;5011634;28;20269;-65
2023/05/05 01:32:03;;;;;;;3.20;2.90;;;;;;;;;;5017098;28;20208;-65
2023/05/05 01:34:35;;;;;;;3.20;2.67;;;;;;;;;;5017592;28;20221;-65
2023/05/05 01:37:06;;;;;;;3.58;2.83;;;;;;;;;;5017503;28;20206;-65
2023/05/05 01:39:35;;;;;;;2.95;2.58;;;;;;;;;;5017409;28;20253;-65
2023/05/05 01:42:05;;;;;;;2.90;2.60;;;;;;;;;;5017357;28;20587;-65
2023/05/05 01:44:34;;;;;;;2.97;2.65;;;;;;;;;;5018059;28;20309;-64
2023/05/05 01:47:03;;;;;;;3.55;2.70;;;;;;;;;;5018093;28;20232;-64
2023/05/05 01:49:32;;;;;;;3.40;2.88;;;;;;;;;;5017579;28;20213;-64
2023/05/05 01:52:02;;;;;;;3.38;3.05;;;;;;;;;;5018002;28;20210;-64
2023/05/05 01:54:30;;;;;;;3.28;2.72;;;;;;;;;;5017453;28;20237;-64
2023/05/05 01:56:59;;;;;;;2.88;2.58;;;;;;;;;;5017821;28;20207;-64
2023/05/05 01:59:27;;;;;;;3.13;2.83;;;;;;;;;;5018064;28;20233;-64
2023/05/05 02:01:55;;;;;;;3.08;2.78;;;;;;;;;;5017681;28;20529;-64
2023/05/05 02:04:24;;;;;;;3.10;2.60;;;;;;;;;;5017695;28;20587;-64
2023/05/05 02:06:52;;;;;;;2.80;2.50;;;;;;;;;;5016571;28;20272;-64
2023/05/05 02:09:21;;;;;;;3.13;2.60;;;;;;;;;;5017289;28;20206;-64
2023/05/05 02:11:48;;;;;;;2.75;2.55;;;;;;;;;;5017506;28;20548;-64
2023/05/05 02:14:17;;;;;;;3.17;2.70;;;;;;;;;;5017433;28;20538;-64
2023/05/05 02:16:45;;;;;;;2.88;2.60;;;;;;;;;;5017534;28;20217;-64
2023/05/05 02:19:14;;;;;;;3.10;2.80;;;;;;;;;;5017395;28;20541;-64
2023/05/05 02:21:43;;;;;;;2.90;2.60;;;;;;;;;;5017166;28;20217;-64
2023/05/05 02:24:10;;;;;;;3.08;2.78;;;;;;;;;;5017588;28;20257;-64
2023/05/05 02:26:40;;;;;;;3.00;2.70;;;;;;;;;;5017095;28;20281;-64
2023/05/05 02:29:10;;;;;;;3.00;2.63;;;;;;;;;;5017216;28;20607;-64
2023/05/05 02:31:42;;;;;;;3.08;2.70;;;;;;;;;;5017500;28;20502;-64
2023/05/05 02:34:10;;;;;;;3.05;2.75;;;;;;;;;;5017319;28;20245;-64
2023/05/05 02:36:41;;;;;;;3.08;2.60;;;;;;;;;;5017137;28;20225;-64
2023/05/05 02:39:12;;;;;;;2.78;2.58;;;;;;;;;;5017422;28;20206;-64
2023/05/05 02:41:40;;;;;;;2.85;2.65;;;;;;;;;;5017036;28;20206;-64
2023/05/05 02:44:10;;;;;;;2.75;2.55;;;;;;;;;;5017486;28;20237;-64
2023/05/05 02:46:38;;;;;;;3.35;2.80;;;;;;;;;;5017593;28;20301;-64
2023/05/05 02:49:06;;;;;;;2.92;2.72;;;;;;;;;;5017285;28;20245;-64
2023/05/05 02:51:33;;;;;;;2.58;2.38;;;;;;;;;;5017249;28;20207;-64
2023/05/05 02:54:01;;;;;;;2.55;2.28;;;;;;;;;;5017246;28;20202;-64
2023/05/05 02:56:35;;;;;;;3.03;2.80;;;;;;;;;;5016783;28;20618;-64
2023/05/05 02:59:07;;;;;;;2.80;2.60;;;;;;;;;;5017107;28;20217;-64
2023/05/05 03:01:40;;;;;;;2.83;2.50;;;;;;;;;;5017088;28;20217;-64
2023/05/05 03:04:09;;;;;;;2.72;2.40;;;;;;;;;;5016777;28;20241;-64
2023/05/05 03:06:40;;;;;;;3.15;2.55;;;;;;;;;;5016385;28;20211;-64
2023/05/05 03:09:09;;;;;;;3.08;2.78;;;;;;;;;;5017282;28;20229;-64
2023/05/05 03:11:40;;;;;;;3.33;2.47;;;;;;;;;;5016817;28;20211;-64
2023/05/05 03:14:09;;;;;;;3.30;2.45;;;;;;;;;;5016757;28;20268;-64
2023/05/05 03:16:40;;;;;;;2.70;2.40;;;;;;;;;;5017127;28;20218;-64
2023/05/05 03:19:09;;;;;;;2.83;2.60;;;;;;;;;;5019496;28;20537;-64
2023/05/05 03:21:37;;;;;;;2.83;2.60;;;;;;;;;;5020226;28;20208;-64
2023/05/05 03:24:13;;;;;;;2.85;2.55;;;;;;;;;;5020304;28;20554;-64
2023/05/05 03:26:42;;;;;;;2.80;2.60;;;;;;;;;;5020283;28;20206;-64
2023/05/05 03:29:09;;;;;;;2.60;2.40;;;;;;;;;;5020205;28;20579;-64
2023/05/05 03:31:37;;;;;;;2.75;2.47;;;;;;;;;;5020341;28;20241;-64
2023/05/05 03:34:05;;;;;;;2.53;2.33;;;;;;;;;;5020130;28;20202;-65
2023/05/05 03:36:32;;;;;;;2.55;2.35;;;;;;;;;;5019862;28;20218;-65
2023/05/05 03:39:00;;;;;;;2.83;2.60;;;;;;;;;;5019796;28;20214;-64
2023/05/05 03:41:27;;;;;;;2.60;2.40;;;;;;;;;;5019982;28;20246;-65
2023/05/05 03:43:56;;;;;;;2.58;2.38;;;;;;;;;;5019848;28;20563;-65
2023/05/05 03:46:24;;;;;;;2.63;2.42;;;;;;;;;;5019865;28;20531;-65
2023/05/05 03:48:51;;;;;;;2.42;2.22;;;;;;;;;;5020235;28;20218;-65
2023/05/05 03:51:19;;;;;;;2.75;2.35;;;;;;;;;;5019625;28;20264;-65
2023/05/05 03:53:47;;;;;;;2.40;2.20;;;;;;;;;;5019734;28;20238;-65
2023/05/05 03:56:14;;;;;;;2.60;2.40;;;;;;;;;;5019559;28;20218;-65
2023/05/05 03:58:42;;;;;;;2.72;2.53;;;;;;;;;;5019032;28;20309;-65
2023/05/05 04:01:11;;;;;;;2.53;2.33;;;;;;;;;;5019233;28;20305;-65
2023/05/05 04:03:38;;;;;;;2.70;2.50;;;;;;;;;;5019072;28;20238;-65
2023/05/05 04:06:06;;;;;;;2.47;2.28;;;;;;;;;;5019170;28;20246;-65
2023/05/05 04:08:34;;;;;;;2.67;2.47;;;;;;;;;;5019038;28;20229;-65
2023/05/05 04:11:02;;;;;;;2.55;2.35;;;;;;;;;;5018749;28;20206;-65
2023/05/05 04:13:29;;;;;;;2.33;2.13;;;;;;;;;;5018643;28;20701;-65
2023/05/05 04:15:58;;;;;;;2.60;2.40;;;;;;;;;;5019043;28;20210;-65
2023/05/05 04:18:27;;;;;;;2.50;2.30;;;;;;;;;;5019211;28;20234;-65
2023/05/05 04:20:54;;;;;;;2.55;2.35;;;;;;;;;;5018741;28;20206;-65
2023/05/05 04:23:22;;;;;;;2.75;2.55;;;;;;;;;;5018419;28;20230;-65
2023/05/05 04:25:49;;;;;;;2.63;2.42;;;;;;;;;;5018703;28;20206;-65
2023/05/05 04:28:16;;;;;;;2.47;2.28;;;;;;;;;;5018614;28;20202;-64
2023/05/05 04:30:44;;;;;;;2.50;2.30;;;;;;;;;;5017406;28;20207;-64
2023/05/05 04:33:11;;;;;;;2.55;2.35;;;;;;;;;;5018144;28;20206;-65
2023/05/05 04:35:40;;;;;;;2.55;2.35;;;;;;;;;;5017461;28;20696;-65
2023/05/05 04:38:07;;;;;;;2.50;2.30;;;;;;;;;;5018327;28;20215;-65
2023/05/05 04:40:39;;;;;;;2.50;2.30;;;;;;;;;;5018253;28;20222;-65
2023/05/05 04:43:07;;;;;;;2.50;2.30;;;;;;;;;;5017341;28;20281;-65
2023/05/05 04:45:34;;;;;;;2.60;2.40;;;;;;;;;;5017642;28;20249;-65
2023/05/05 04:48:03;;;;;;;2.50;2.30;;;;;;;;;;5017110;28;20206;-65
2023/05/05 04:50:31;;;;;;;2.33;2.13;;;;;;;;;;5017664;28;20206;-65
2023/05/05 04:53:00;;;;;;;2.42;2.22;;;;;;;;;;5017404;28;20202;-65
2023/05/05 04:55:27;;;;;;;2.15;2.05;;;;;;;;;;5017273;28;20202;-65
2023/05/05 04:57:54;;;;;;;2.20;2.08;;;;;;;;;;5016305;28;20225;-65
2023/05/05 05:00:22;;;;;;;2.28;2.17;;;;;;;;;;5016578;28;20206;-65
2023/05/05 05:02:51;;;;;;;2.20;2.10;;;;;;;;;;5016509;28;20206;-65
2023/05/05 05:05:18;;;;;;;2.35;2.17;;;;;;;;;;5015175;28;20578;-65
2023/05/05 05:07:45;;;;;;;2.45;2.28;;;;;;;;;;5016075;28;20206;-65
2023/05/05 05:10:14;;;;;;;2.25;2.08;;;;;;;;;;5015212;28;20587;-65
2023/05/05 05:12:42;;;;;;;2.15;1.95;;;;;;;;;;5015452;28;20249;-65
2023/05/05 05:15:10;;;;;;;2.42;2.22;;;;;;;;;;5015417;28;20599;-65
2023/05/05 05:17:37;;;;;;;2.38;2.17;;;;;;;;;;5015382;28;20269;-65
2023/05/05 05:20:05;;;;;;;2.35;2.15;;;;;;;;;;5015122;28;20209;-65
2023/05/05 05:22:33;;;;;;;2.42;2.22;;;;;;;;;;5014152;28;20730;-65
2023/05/05 05:25:01;;;;;;;2.17;2.08;;;;;;;;;;5015167;28;20230;-65
2023/05/05 05:27:31;;;;;;;2.20;2.10;;;;;;;;;;5015501;28;20301;-65
2023/05/05 05:30:00;;;;;;;2.30;2.20;;;;;;;;;;5015478;28;20482;-65
2023/05/05 05:32:27;;;;;;;2.20;2.10;;;;;;;;;;5015778;28;20587;-65
2023/05/05 05:34:54;;;;;;;2.10;2.00;;;;;;;;;;5015432;28;20203;-65
2023/05/05 05:37:21;;;;;;;2.38;2.17;;;;;;;;;;5015705;28;20218;-65
2023/05/05 05:39:52;;;;;;;2.35;2.15;;;;;;;;;;5015236;28;20217;-65
2023/05/05 05:42:19;;;;;;;2.22;2.13;;;;;;;;;;5014877;28;20235;-65
2023/05/05 05:44:48;;;;;;;2.17;2.08;;;;;;;;;;5014876;28;20317;-65
2023/05/05 05:47:15;;;;;;;2.30;2.10;;;;;;;;;;5014229;28;20221;-65
2023/05/05 05:49:42;;;;;;;2.10;2.00;;;;;;;;;;5014786;28;20217;-65
2023/05/05 05:52:10;;;;;;;2.30;2.20;;;;;;;;;;5015019;28;20742;-65
2023/05/05 05:54:37;;;;;;;2.00;1.90;;;;;;;;;;5014259;28;20213;-65
2023/05/05 05:57:05;;;;;;;2.00;1.90;;;;;;;;;;5014631;28;20482;-65
2023/05/05 05:59:33;;;;;;;2.20;2.00;;;;;;;;;;5013939;28;20210;-65
2023/05/05 06:02:02;;;;;;;2.28;2.08;;;;;;;;;;5013977;28;20197;-65
2023/05/05 06:04:29;;;;;;;2.50;2.30;;;;;;;;;;5014520;28;20226;-65
2023/05/05 06:06:57;;;;;;;2.10;2.00;;;;;;;;;;5014615;28;20206;-65
2023/05/05 06:09:25;;;;;;;2.20;2.10;;;;;;;;;;5015979;28;20210;-65
2023/05/05 06:11:52;;;;;;;2.10;1.90;;;;;;;;;;5014296;28;20209;-65
2023/05/05 06:14:19;;;;;;;2.35;2.15;;;;;;;;;;5014520;28;20203;-65
2023/05/05 06:16:47;;;;;;;2.25;2.15;;;;;;;;;;5014720;28;20206;-65
2023/05/05 06:19:15;;;;;;;2.05;1.95;;;;;;;;;;5014379;28;20210;-65
2023/05/05 06:21:43;;;;;;;2.00;1.90;;;;;;;;;;5015217;28;20198;-65
2023/05/05 06:24:10;;;;;;;2.28;2.05;;;;;;;;;;5015044;28;20226;-65
2023/05/05 06:26:38;;;;;;;1.98;1.88;;;;;;;;;;5015399;28;20335;-65
2023/05/05 06:29:05;;;;;;;2.25;2.10;;;;;;;;;;5015371;28;20211;-65
2023/05/05 06:31:32;;;;;;;2.20;2.00;;;;;;;;;;5015498;28;20475;-65
2023/05/05 06:34:00;;;;;;;2.15;1.83;;;;;;;;;;5015474;28;20194;-65
2023/05/05 06:36:28;;;;;;;2.25;2.05;;;;;;;;;;5015240;28;20206;-65
2023/05/05 06:38:56;;;;;;;2.40;2.20;;;;;;;;;;5015504;28;20202;-65
2023/05/05 06:41:23;;;;;;;2.08;1.95;;;;;;;;;;5015045;28;20217;-65
2023/05/05 06:43:50;;;;;;;1.85;1.75;;;;;;;;;;5014974;28;20651;-65
2023/05/05 06:46:18;;;;;;;2.10;1.88;;;;;;;;;;5013805;28;20302;-65
2023/05/05 06:48:45;;;;;;;2.15;2.03;;;;;;;;;;5014744;28;20210;-65
2023/05/05 06:51:14;;;;;;;1.88;1.77;;;;;;;;;;5014745;28;20610;-65
2023/05/05 06:53:43;;;;;;;2.00;1.90;;;;;;;;;;5017636;28;20210;-65
2023/05/05 06:56:10;;;;;;;2.33;2.20;;;;;;;;;;5018268;28;20203;-65
2023/05/05 06:58:37;;;;;;;1.90;1.80;;;;;;;;;;5017880;28;20203;-65
2023/05/05 07:01:05;;;;;;;1.98;1.88;;;;;;;;;;5018080;28;20214;-65
2023/05/05 07:03:32;;;;;;;2.08;1.88;;;;;;;;;;5018616;28;20206;-65
2023/05/05 07:06:00;;;;;;;2.10;1.90;;;;;;;;;;5018768;28;20207;-65
2023/05/05 07:08:27;;;;;;;1.95;1.85;;;;;;;;;;5018269;28;20214;-65
2023/05/05 07:10:56;;;;;;;1.85;1.75;;;;;;;;;;5019541;28;20481;-65
2023/05/05 07:13:23;;;;;;;1.80;1.70;;;;;;;;;;5019500;28;20620;-65
2023/05/05 07:15:50;;;;;;;2.05;1.85;;;;;;;;;;5018304;28;20199;-65
2023/05/05 07:18:19;;;;;;;1.80;1.70;;;;;;;;;;5018773;28;20206;-65
2023/05/05 07:20:46;;;;;;;1.88;1.70;;;;;;;;;;5018508;28;20571;-66
2023/05/05 07:23:14;;;;;;;1.92;1.83;;;;;;;;;;5018630;28;20203;-65
2023/05/05 07:25:41;;;;;;;1.73;1.63;;;;;;;;;;5019231;28;20226;-65
2023/05/05 07:28:10;;;;;;;1.80;1.70;;;;;;;;;;5017927;28;20207;-65
2023/05/05 07:30:37;;;;;;;1.80;1.70;;;;;;;;;;5018189;28;20210;-65
2023/05/05 07:33:05;;;;;;;1.95;1.80;;;;;;;;;;5018178;28;20214;-65
2023/05/05 07:35:32;;;;;;;1.67;1.58;;;;;;;;;;5017233;28;20232;-65
2023/05/05 07:38:00;;;;;;;2.00;1.80;;;;;;;;;;5017839;28;20206;-65
2023/05/05 07:40:27;;;;;;;2.10;1.90;;;;;;;;;;5017737;28;20207;-65
2023/05/05 07:42:54;;;;;;;1.80;1.70;;;;;;;;;;5017545;28;20206;-65
2023/05/05 07:45:24;;;;;;;1.90;1.80;;;;;;;;;;5017277;28;20241;-65
2023/05/05 07:47:51;;;;;;;2.00;1.90;;;;;;;;;;5017635;28;20206;-65
2023/05/05 07:50:19;;;;;;;1.60;1.50;;;;;;;;;;5016562;28;20198;-65
2023/05/05 07:52:46;;;;;;;1.98;1.88;;;;;;;;;;5016580;28;20241;-65
2023/05/05 07:55:14;;;;;;;2.13;1.90;;;;;;;;;;5016802;28;20248;-65
2023/05/05 07:57:41;;;;;;;1.73;1.63;;;;;;;;;;5016646;28;20209;-66
2023/05/05 08:00:09;;;;;;;1.88;1.70;;;;;;;;;;5015792;28;20217;-65
2023/05/05 08:02:38;;;;;;;1.60;1.50;;;;;;;;;;5016869;28;20353;-65
2023/05/05 08:05:06;;;;;;;1.70;1.60;;;;;;;;;;5015567;28;20237;-65
2023/05/05 08:07:35;;;;;;;1.90;1.60;;;;;;;;;;5017612;28;20681;-65
2023/05/05 08:10:02;;;;;;;1.88;1.70;;;;;;;;;;5017156;28;20722;-65
2023/05/05 08:12:29;;;;;;;1.80;1.70;;;;;;;;;;5016686;28;20276;-65
2023/05/05 08:14:57;;;;;;;1.60;1.48;;;;;;;;;;5016991;28;20586;-65
2023/05/05 08:17:25;;;;;;;1.85;1.75;;;;;;;;;;5017084;28;20606;-65
2023/05/05 08:19:54;;;;;;;1.80;1.70;;;;;;;;;;5017076;28;20538;-65
2023/05/05 08:22:22;;;;;;;1.80;1.70;;;;;;;;;;5016958;28;20283;-65
2023/05/05 08:24:49;;;;;;;1.92;1.83;;;;;;;;;;5017156;28;20498;-66
2023/05/05 08:27:17;;;;;;;2.75;1.90;;;;;;;;;;5016594;28;20293;-65
2023/05/05 08:29:44;;;;;;;2.20;1.83;;;;;;;;;;5016295;28;20756;-65
2023/05/05 08:32:12;;;;;;;1.80;1.70;;;;;;;;;;5016423;28;20314;-65
2023/05/05 08:34:39;;;;;;;1.92;1.77;;;;;;;;;;5016355;28;20213;-65
2023/05/05 08:37:08;;;;;;;1.90;1.80;;;;;;;;;;5016160;28;20212;-65
2023/05/05 08:39:35;;;;;;;1.95;1.80;;;;;;;;;;5016633;28;20207;-65
2023/05/05 08:42:03;;;;;;;2.00;1.90;;;;;;;;;;5016832;28;20204;-65
2023/05/05 08:44:31;;;;;;;2.00;1.88;;;;;;;;;;5015995;28;20313;-65
2023/05/05 08:46:58;;;;;;;2.00;1.80;;;;;;;;;;5015911;28;20625;-65
2023/05/05 08:49:26;;;;;;;1.73;1.63;;;;;;;;;;5016546;28;20505;-65
2023/05/05 08:51:54;;;;;;;2.10;1.85;;;;;;;;;;5016376;28;20206;-65
2023/05/05 08:54:28;;;;;;;2.00;1.90;;;;;;;;;;5016050;28;20194;-65
2023/05/05 08:56:57;;;;;;;1.85;1.75;;;;;;;;;;5016731;28;20206;-65
2023/05/05 08:59:24;;;;;;;1.92;1.83;;;;;;;;;;5016108;28;20206;-65
2023/05/05 09:01:52;;;;;;;1.90;1.80;;;;;;;;;;5015920;28;20206;-65
2023/05/05 09:04:20;;;;;;;1.90;1.80;;;;;;;;;;5016176;28;20210;-65
2023/05/05 09:06:48;;;;;;;1.98;1.80;;;;;;;;;;5015198;28;20208;-65
2023/05/05 09:09:15;;;;;;;1.80;1.70;;;;;;;;;;5016626;28;20478;-65
2023/05/05 09:11:45;;;;;;;1.80;1.70;;;;;;;;;;5016034;28;20211;-65
2023/05/05 09:14:13;;;;;;;1.83;1.73;;;;;;;;;;5016147;28;20214;-65
2023/05/05 09:16:41;;;;;;;1.88;1.77;;;;;;;;;;5015204;28;20198;-65
2023/05/05 09:19:09;;;;;;;2.00;1.90;;;;;;;;;;5015198;28;20242;-65
2023/05/05 09:21:40;;;;;;;2.30;2.10;;;;;;;;;;5015087;28;20206;-65
2023/05/05 09:24:09;;;;;;;2.00;1.80;;;;;;;;;;5015948;28;20209;-65
2023/05/05 09:26:37;;;;;;;2.00;1.90;;;;;;;;;;5015374;28;20195;-65
2023/05/05 09:29:06;;;;;;;2.50;1.80;;;;;;;;;;5016712;28;20206;-65
2023/05/05 09:31:34;;;;;;;1.80;1.70;;;;;;;;;;5015503;28;20205;-65
2023/05/05 09:34:03;;;;;;;1.80;1.70;;;;;;;;;;5014931;28;20228;-65
2023/05/05 09:36:43;;;;;;;1.88;1.77;;;;;;;;;;5015522;28;20234;-65
2023/05/05 09:39:10;;;;;;;1.75;1.65;;;;;;;;;;5014198;28;20285;-65
2023/05/05 09:41:38;;;;;;;2.15;1.75;;;;;;;;;;5014336;28;20198;-65
2023/05/05 09:44:07;;;;;;;1.90;1.80;;;;;;;;;;5014514;28;20230;-65
2023/05/05 09:46:34;;;;;;;2.17;1.98;;;;;;;;;;5015210;28;20253;-65
2023/05/05 09:49:17;;;;;;;2.10;1.90;;;;;;;;;;5015039;28;20214;-65
2023/05/05 09:51:45;;;;;;;2.10;1.90;;;;;;;;;;5014694;28;20213;-65
2023/05/05 09:54:22;;;;;;;2.10;2.00;;;;;;;;;;5014555;28;20301;-65
2023/05/05 09:56:51;;;;;;;2.15;1.95;;;;;;;;;;5014436;28;20217;-65
2023/05/05 09:59:20;;;;;;;2.22;2.13;;;;;;;;;;5014540;28;20276;-65
2023/05/05 10:01:48;;;;;;;2.20;2.00;;;;;;;;;;5015185;28;20228;-65
2023/05/05 10:04:24;;;;;;;2.17;1.98;;;;;;;;;;5014378;28;20216;-65
2023/05/05 10:06:52;;;;;;;2.35;2.20;;;;;;;;;;5014001;28;20209;-65
2023/05/05 10:09:19;;;;;;;2.25;2.05;;;;;;;;;;5015064;28;20206;-65
2023/05/05 10:11:47;;;;;;;2.15;2.05;;;;;;;;;;5014442;28;20244;-65
2023/05/05 10:14:14;;;;;;;2.20;2.00;;;;;;;;;;5013935;28;20233;-65
2023/05/05 10:16:46;;;;;;;2.45;2.25;;;;;;;;;;5013768;28;20212;-65
2023/05/05 10:19:15;;;;;;;2.20;2.10;;;;;;;;;;5013524;28;20206;-65
2023/05/05 10:21:47;;;;;;;2.63;2.42;;;;;;;;;;5014368;28;20202;-65
2023/05/05 10:24:17;;;;;;;2.40;2.22;;;;;;;;;;5012264;28;20218;-65
2023/05/05 10:26:45;;;;;;;2.60;2.40;;;;;;;;;;5013279;28;20233;-65
2023/05/05 10:29:16;;;;;;;2.53;2.33;;;;;;;;;;5016235;28;20300;-65
2023/05/05 10:31:48;;;;;;;2.35;2.17;;;;;;;;;;5018526;28;20206;-65
2023/05/05 10:34:18;;;;;;;2.42;2.22;;;;;;;;;;5017390;28;20609;-65
2023/05/05 10:36:46;;;;;;;2.60;2.40;;;;;;;;;;5018272;28;20199;-65
2023/05/05 10:39:15;;;;;;;2.90;2.60;;;;;;;;;;5018245;28;20221;-65
2023/05/05 10:41:43;;;;;;;2.50;2.30;;;;;;;;;;5018107;28;20209;-65
2023/05/05 10:44:12;;;;;;;2.40;2.30;;;;;;;;;;5017934;28;20276;-65
2023/05/05 10:46:39;;;;;;;2.35;2.20;;;;;;;;;;5017452;28;20237;-65
2023/05/05 10:49:11;;;;;;;2.85;2.63;;;;;;;;;;5017806;28;20210;-65
2023/05/05 10:51:41;;;;;;;2.45;2.20;;;;;;;;;;5017264;28;20202;-65
2023/05/05 10:54:12;;;;;;;2.55;2.35;;;;;;;;;;5018524;28;20221;-65
2023/05/05 10:56:41;;;;;;;2.60;2.40;;;;;;;;;;5018069;28;20198;-65
2023/05/05 10:59:23;;;;;;;2.53;2.33;;;;;;;;;;5018072;28;20237;-65
2023/05/05 11:01:50;;;;;;;3.13;2.40;;;;;;;;;;5016409;28;20654;-65
2023/05/05 11:04:23;;;;;;;3.22;2.60;;;;;;;;;;5018296;28;20241;-65
2023/05/05 11:07:09;;;;;;;2.58;2.38;;;;;;;;;;5017617;28;20324;-65
2023/05/05 11:09:40;;;;;;;2.75;2.55;;;;;;;;;;5017078;28;20276;-65
2023/05/05 11:12:08;;;;;;;2.42;2.28;;;;;;;;;;5017681;28;20234;-65
2023/05/05 11:14:36;;;;;;;2.50;2.20;;;;;;;;;;5017133;28;20214;-65
2023/05/05 11:17:03;;;;;;;2.30;2.20;;;;;;;;;;5016448;28;20312;-65
2023/05/05 11:19:47;;;;;;;2.58;2.38;;;;;;;;;;5016972;28;20237;-65
2023/05/05 11:22:16;;;;;;;2.50;2.30;;;;;;;;;;5017195;28;20206;-65
2023/05/05 11:24:43;;;;;;;2.45;2.25;;;;;;;;;;5016720;28;20669;-65
2023/05/05 11:27:11;;;;;;;2.50;2.30;;;;;;;;;;5016563;28;20234;-65
2023/05/05 11:29:57;;;;;;;2.70;2.50;;;;;;;;;;5016787;28;20210;-65
2023/05/05 11:32:24;;;;;;;2.40;2.20;;;;;;;;;;5015456;28;20207;-65
2023/05/05 11:34:53;;;;;;;2.38;2.28;;;;;;;;;;5015863;28;20210;-65
2023/05/05 11:37:24;;;;;;;2.63;2.42;;;;;;;;;;5015264;28;20256;-65
2023/05/05 11:39:55;;;;;;;2.50;2.30;;;;;;;;;;5016877;28;20206;-65
2023/05/05 11:42:26;;;;;;;2.55;2.35;;;;;;;;;;5016246;28;20213;-65
2023/05/05 11:44:54;;;;;;;2.55;2.40;;;;;;;;;;5015375;28;20621;-65
2023/05/05 11:47:33;;;;;;;2.65;2.45;;;;;;;;;;5015730;28;20206;-65
2023/05/05 11:50:17;;;;;;;2.35;2.17;;;;;;;;;;5015591;28;20202;-65
2023/05/05 11:52:45;;;;;;;2.42;2.22;;;;;;;;;;5014442;28;20234;-65
2023/05/05 11:55:13;;;;;;;2.40;2.20;;;;;;;;;;5015238;28;20210;-65
2023/05/05 11:57:41;;;;;;;2.60;2.40;;;;;;;;;;5015260;28;20213;-65
2023/05/05 12:00:09;;;;;;;2.20;2.10;;;;;;;;;;5015888;28;20207;-65
2023/05/05 12:02:37;;;;;;;2.60;2.22;;;;;;;;;;5015957;28;20198;-65
2023/05/05 12:05:04;;;;;;;2.40;2.20;;;;;;;;;;5015728;28;20206;-65
2023/05/05 12:07:33;;;;;;;2.42;2.20;;;;;;;;;;5016327;28;20217;-65
2023/05/05 12:10:01;;;;;;;2.60;2.40;;;;;;;;;;5016309;28;20238;-65
2023/05/05 12:12:36;;;;;;;2.40;2.30;;;;;;;;;;5016562;28;20248;-65
2023/05/05 12:15:03;;;;;;;2.60;2.40;;;;;;;;;;5015210;28;20292;-65
2023/05/05 12:17:36;;;;;;;2.33;2.13;;;;;;;;;;5015370;28;20470;-65
2023/05/05 12:20:04;;;;;;;2.55;2.38;;;;;;;;;;5016354;28;20455;-65
2023/05/05 12:22:31;;;;;;;2.25;2.15;;;;;;;;;;5015162;28;20237;-65
2023/05/05 12:24:59;;;;;;;2.67;2.20;;;;;;;;;;5014510;28;20206;-65
2023/05/05 12:27:29;;;;;;;2.38;2.17;;;;;;;;;;5014532;28;20237;-65
2023/05/05 12:29:57;;;;;;;2.42;2.22;;;;;;;;;;5014413;28;20494;-66
2023/05/05 12:32:26;;;;;;;2.53;2.42;;;;;;;;;;5014603;28;20606;-66
2023/05/05 12:34:56;;;;;;;2.53;2.33;;;;;;;;;;5014606;28;20306;-65
2023/05/05 12:37:23;;;;;;;2.63;2.42;;;;;;;;;;5015401;28;20202;-65
2023/05/05 12:39:53;;;;;;;2.65;2.25;;;;;;;;;;5015168;28;20245;-65
2023/05/05 12:42:21;;;;;;;2.40;2.20;;;;;;;;;;5014339;28;20206;-65
2023/05/05 12:44:51;;;;;;;2.40;2.30;;;;;;;;;;5015068;28;20200;-65
2023/05/05 12:47:30;;;;;;;2.58;2.38;;;;;;;;;;5014402;28;20230;-65
2023/05/05 12:49:58;;;;;;;2.30;2.10;;;;;;;;;;5014771;28;20210;-65
2023/05/05 12:52:39;;;;;;;2.33;2.22;;;;;;;;;;5014943;28;20210;-65
2023/05/05 12:55:07;;;;;;;2.50;2.30;;;;;;;;;;5015347;28;20209;-65
2023/05/05 12:57:35;;;;;;;2.63;2.50;;;;;;;;;;5015435;28;20210;-65
2023/05/05 13:00:14;;;;;;;2.60;2.40;;;;;;;;;;5015367;28;20206;-65
2023/05/05 13:02:42;;;;;;;2.78;2.58;;;;;;;;;;5015160;28;20214;-65
2023/05/05 13:05:09;;;;;;;2.30;2.20;;;;;;;;;;5014332;28;20217;-65
2023/05/05 13:07:37;;;;;;;2.55;2.40;;;;;;;;;;5015069;28;20226;-65
2023/05/05 13:10:09;;;;;;;2.50;2.30;;;;;;;;;;5014928;28;20260;-65
2023/05/05 13:12:36;;;;;;;2.50;2.30;;;;;;;;;;5014489;28;20333;-65
2023/05/05 13:15:04;;;;;;;2.15;2.05;;;;;;;;;;5014562;28;20206;-65
2023/05/05 13:17:32;;;;;;;2.45;2.30;;;;;;;;;;5014844;28;20202;-65
2023/05/05 13:20:00;;;;;;;2.65;2.45;;;;;;;;;;5014702;28;20219;-65
2023/05/05 13:22:27;;;;;;;2.50;2.40;;;;;;;;;;5014224;28;20206;-65
2023/05/05 13:24:55;;;;;;;2.33;2.20;;;;;;;;;;5015225;28;20214;-65
2023/05/05 13:27:22;;;;;;;2.45;2.25;;;;;;;;;;5015198;28;20507;-65
2023/05/05 13:29:49;;;;;;;2.70;2.50;;;;;;;;;;5014989;28;20210;-65
2023/05/05 13:32:17;;;;;;;2.10;2.00;;;;;;;;;;5014687;28;20225;-65
2023/05/05 13:34:45;;;;;;;2.65;2.45;;;;;;;;;;5014681;28;20217;-65
2023/05/05 13:37:13;;;;;;;2.22;2.13;;;;;;;;;;5015166;28;20274;-65
2023/05/05 13:39:44;;;;;;;2.50;2.30;;;;;;;;;;5014159;28;20221;-65
2023/05/05 13:42:11;;;;;;;2.40;2.30;;;;;;;;;;5014728;28;20205;-65
2023/05/05 13:44:39;;;;;;;2.70;2.50;;;;;;;;;;5015061;28;20297;-65
2023/05/05 13:47:06;;;;;;;2.58;2.45;;;;;;;;;;5014548;28;20229;-65
2023/05/05 13:49:33;;;;;;;2.50;2.30;;;;;;;;;;5014559;28;20217;-65
2023/05/05 13:52:02;;;;;;;2.40;2.30;;;;;;;;;;5013825;28;20225;-65
2023/05/05 13:54:30;;;;;;;2.30;2.20;;;;;;;;;;5013084;28;20571;-64
2023/05/05 13:56:57;;;;;;;2.20;2.10;;;;;;;;;;5013588;28;20210;-64
2023/05/05 13:59:26;;;;;;;2.38;2.20;;;;;;;;;;5014655;28;20226;-64
2023/05/05 14:01:53;;;;;;;2.22;2.13;;;;;;;;;;5013332;28;20260;-64
2023/05/05 14:04:21;;;;;;;2.15;2.05;;;;;;;;;;5013448;28;20267;-65
2023/05/05 14:06:48;;;;;;;2.13;2.03;;;;;;;;;;5013787;28;20229;-65
2023/05/05 14:09:17;;;;;;;2.60;2.40;;;;;;;;;;5013858;28;20202;-65
2023/05/05 14:11:44;;;;;;;2.60;2.38;;;;;;;;;;5013349;28;20499;-65
2023/05/05 14:14:12;;;;;;;2.30;2.20;;;;;;;;;;5014007;28;20206;-65
2023/05/05 14:16:39;;;;;;;2.28;2.17;;;;;;;;;;5013811;28;20198;-65
2023/05/05 14:19:07;;;;;;;2.47;2.30;;;;;;;;;;5014316;28;20214;-65
2023/05/05 14:21:34;;;;;;;2.60;2.50;;;;;;;;;;5012740;28;20229;-65
2023/05/05 14:24:01;;;;;;;2.30;2.20;;;;;;;;;;5013064;28;20202;-65
2023/05/05 14:26:30;;;;;;;2.40;2.30;;;;;;;;;;5013676;28;20226;-65
2023/05/05 14:28:57;;;;;;;2.40;2.30;;;;;;;;;;5014230;28;20596;-65
2023/05/05 14:31:25;;;;;;;2.15;2.05;;;;;;;;;;5013763;28;20202;-65
2023/05/05 14:33:53;;;;;;;2.47;2.30;;;;;;;;;;5013427;28;20206;-65
2023/05/05 14:36:21;;;;;;;2.60;2.40;;;;;;;;;;5013305;28;20237;-65
2023/05/05 14:38:49;;;;;;;2.13;2.03;;;;;;;;;;5014098;28;20305;-65
2023/05/05 14:41:16;;;;;;;2.13;2.03;;;;;;;;;;5014716;28;20519;-65
2023/05/05 14:43:45;;;;;;;2.30;2.20;;;;;;;;;;5013903;28;20206;-65
2023/05/05 14:46:12;;;;;;;2.00;1.90;;;;;;;;;;5012606;28;20241;-65
2023/05/05 14:48:40;;;;;;;2.38;2.28;;;;;;;;;;5013598;28;20221;-65
2023/05/05 14:51:07;;;;;;;2.22;2.13;;;;;;;;;;5013542;28;20225;-65
2023/05/05 14:53:35;;;;;;;2.22;2.13;;;;;;;;;;5013257;28;20230;-65